createdAt,value
2023-01-13T00:00:10.553Z,-8.06
2023-01-13T00:02:40.215Z,-8.03
2023-01-13T00:05:07.508Z,-8.17
2023-01-13T00:07:34.342Z,-8.22
2023-01-13T00:10:01.238Z,-8.12
2023-01-13T00:12:28.113Z,-8.11
2023-01-13T00:14:54.985Z,-7.96
2023-01-13T00:17:22.944Z,-8.01
2023-01-13T00:19:49.896Z,-7.85
2023-01-13T00:22:16.879Z,-7.77
2023-01-13T00:24:43.716Z,-7.94
2023-01-13T00:27:10.590Z,-7.84
2023-01-13T00:29:37.698Z,-7.98
2023-01-13T00:32:04.633Z,-7.93
2023-01-13T00:34:31.754Z,-8.09
2023-01-13T00:36:58.601Z,-7.72
2023-01-13T00:39:25.484Z,-7.71
2023-01-13T00:41:52.329Z,-7.67
2023-01-13T00:44:19.378Z,-7.63
2023-01-13T00:46:46.269Z,-7.67
2023-01-13T00:49:13.216Z,-7.51
2023-01-13T00:51:40.055Z,-7.88
2023-01-13T00:54:07.047Z,-7.50
2023-01-13T00:56:40.246Z,-7.52
2023-01-13T00:59:12.011Z,-7.71
2023-01-13T01:01:40.021Z,-7.61
2023-01-13T01:04:07.272Z,-7.67
2023-01-13T01:06:34.259Z,-7.49
2023-01-13T01:09:01.150Z,-7.62
2023-01-13T01:11:30.505Z,-7.44
2023-01-13T01:13:59.975Z,-7.39
2023-01-13T01:16:28.675Z,-7.55
2023-01-13T01:18:56.419Z,-7.90
2023-01-13T01:21:26.174Z,-7.88
2023-01-13T01:23:53.611Z,-7.73
2023-01-13T01:26:25.651Z,-7.60
2023-01-13T01:28:52.855Z,-8.00
2023-01-13T01:31:22.712Z,-7.49
2023-01-13T01:33:50.309Z,-7.49
2023-01-13T01:36:18.988Z,-7.61
2023-01-13T01:38:47.178Z,-7.76
2023-01-13T01:41:22.960Z,-7.77
2023-01-13T01:44:31.387Z,-7.64
2023-01-13T01:46:58.550Z,-7.57
2023-01-13T01:49:34.935Z,-7.61
2023-01-13T01:52:06.683Z,-7.76
2023-01-13T01:54:57.237Z,-7.59
2023-01-13T01:57:49.165Z,-7.91
2023-01-13T02:00:16.375Z,-7.64
2023-01-13T02:02:46.387Z,-7.57
2023-01-13T02:05:14.120Z,-7.73
2023-01-13T02:07:43.356Z,-7.77
2023-01-13T02:10:14.455Z,-7.63
2023-01-13T02:12:44.266Z,-7.40
2023-01-13T02:15:20.017Z,-7.50
2023-01-13T02:17:52.795Z,-7.56
2023-01-13T02:20:28.957Z,-7.61
2023-01-13T02:23:07.592Z,-7.32
2023-01-13T02:25:59.837Z,-7.32
2023-01-13T02:28:48.757Z,-7.60
2023-01-13T02:31:15.990Z,-7.54
2023-01-13T02:34:09.682Z,-7.34
2023-01-13T02:36:53.648Z,-7.50
2023-01-13T02:39:46.180Z,-7.57
2023-01-13T02:42:34.759Z,-7.57
2023-01-13T02:45:12.313Z,-7.61
2023-01-13T02:47:44.177Z,-7.67
2023-01-13T02:50:17.994Z,-7.39
2023-01-13T02:53:06.216Z,-7.48
2023-01-13T02:55:45.882Z,-7.50
2023-01-13T02:58:18.063Z,-7.52
2023-01-13T03:00:46.649Z,-7.51
2023-01-13T03:03:14.259Z,-7.50
2023-01-13T03:05:44.426Z,-7.46
2023-01-13T03:08:32.738Z,-7.50
2023-01-13T03:11:12.042Z,-7.36
2023-01-13T03:13:55.523Z,-7.31
2023-01-13T03:16:50.240Z,-7.32
2023-01-13T03:19:44.459Z,-7.36
2023-01-13T03:22:31.772Z,-7.74
2023-01-13T03:25:15.778Z,-7.41
2023-01-13T03:27:49.104Z,-7.36
2023-01-13T03:30:34.428Z,-7.34
2023-01-13T03:33:16.960Z,-7.46
2023-01-13T03:35:48.111Z,-7.24
2023-01-13T03:38:21.739Z,-7.56
2023-01-13T03:40:56.024Z,-7.40
2023-01-13T03:43:36.263Z,-7.41
2023-01-13T03:46:11.252Z,-7.28
2023-01-13T03:48:43.057Z,-7.45
2023-01-13T03:51:15.278Z,-7.37
2023-01-13T03:54:11.465Z,-7.27
2023-01-13T03:57:10.115Z,-7.22
2023-01-13T03:59:42.665Z,-7.37
2023-01-13T04:02:17.578Z,-7.50
2023-01-13T04:05:02.509Z,-7.34
2023-01-13T04:07:59.103Z,-7.41
2023-01-13T04:10:35.486Z,-7.25
2023-01-13T04:13:11.650Z,-7.15
2023-01-13T04:15:42.713Z,-7.09
2023-01-13T04:18:29.880Z,-7.05
2023-01-13T04:20:59.707Z,-6.84
2023-01-13T04:23:27.313Z,-6.64
2023-01-13T04:25:55.161Z,-6.79
2023-01-13T04:28:22.868Z,-6.74
2023-01-13T04:30:49.922Z,-6.73
2023-01-13T04:33:18.672Z,-6.96
2023-01-13T04:35:47.345Z,-6.81
2023-01-13T04:38:16.968Z,-6.89
2023-01-13T04:40:44.549Z,-6.75
2023-01-13T04:43:12.139Z,-6.58
2023-01-13T04:45:39.206Z,-6.82
2023-01-13T04:48:06.442Z,-6.64
2023-01-13T04:50:34.811Z,-6.78
2023-01-13T04:53:01.623Z,-6.91
2023-01-13T04:55:28.603Z,-7.02
2023-01-13T04:57:55.516Z,-6.81
2023-01-13T05:00:23.399Z,-7.11
2023-01-13T05:02:51.696Z,-6.86
2023-01-13T05:05:19.030Z,-6.96
2023-01-13T05:07:46.077Z,-7.16
2023-01-13T05:10:13.241Z,-6.82
2023-01-13T05:12:40.337Z,-6.86
2023-01-13T05:15:08.026Z,-7.07
2023-01-13T05:17:36.021Z,-6.62
2023-01-13T05:20:03.778Z,-6.88
2023-01-13T05:22:30.630Z,-6.71
2023-01-13T05:24:57.551Z,-6.79
2023-01-13T05:27:24.538Z,-6.62
2023-01-13T05:29:51.637Z,-6.40
2023-01-13T05:32:18.543Z,-6.70
2023-01-13T05:34:45.450Z,-6.44
2023-01-13T05:37:12.273Z,-6.55
2023-01-13T05:39:40.364Z,-6.39
2023-01-13T05:42:08.206Z,-6.47
2023-01-13T05:44:35.137Z,-6.51
2023-01-13T05:47:02.058Z,-6.67
2023-01-13T05:49:28.936Z,-6.48
2023-01-13T05:51:55.806Z,-6.70
2023-01-13T05:54:22.628Z,-6.73
2023-01-13T05:56:49.503Z,-6.46
2023-01-13T05:59:16.391Z,-6.31
2023-01-13T06:01:43.253Z,-6.52
2023-01-13T06:04:10.167Z,-6.75
2023-01-13T06:06:36.992Z,-6.73
2023-01-13T06:09:03.928Z,-6.56
2023-01-13T06:11:31.072Z,-6.74
2023-01-13T06:13:57.923Z,-6.65
2023-01-13T06:16:24.906Z,-6.85
2023-01-13T06:18:51.811Z,-6.73
2023-01-13T06:21:18.717Z,-6.48
2023-01-13T06:23:45.572Z,-7.06
2023-01-13T06:26:20.705Z,-6.76
2023-01-13T06:28:47.668Z,-6.87
2023-01-13T06:31:14.714Z,-6.94
2023-01-13T06:33:49.503Z,-6.52
2023-01-13T06:36:24.552Z,-6.74
2023-01-13T06:38:57.800Z,-6.84
2023-01-13T06:41:28.828Z,-6.61
2023-01-13T06:43:55.996Z,-6.58
2023-01-13T06:46:22.918Z,-6.82
2023-01-13T06:48:49.819Z,-6.77
2023-01-13T06:51:16.656Z,-6.59
2023-01-13T06:53:43.616Z,-6.53
2023-01-13T06:56:10.430Z,-6.34
2023-01-13T06:58:37.330Z,-6.32
2023-01-13T07:01:04.303Z,-6.55
2023-01-13T07:03:31.309Z,-6.41
2023-01-13T07:05:58.178Z,-6.35
2023-01-13T07:08:25.275Z,-6.31
2023-01-13T07:10:52.294Z,-6.28
2023-01-13T07:13:19.307Z,-5.97
2023-01-13T07:15:56.168Z,-5.91
2023-01-13T07:18:23.208Z,-5.78
2023-01-13T07:21:07.262Z,-5.56
2023-01-13T07:23:40.027Z,-5.97
2023-01-13T07:26:10.814Z,-5.74
2023-01-13T07:28:38.844Z,-6.01
2023-01-13T07:31:12.386Z,-5.94
2023-01-13T07:33:39.484Z,-5.94
2023-01-13T07:36:06.959Z,-6.05
2023-01-13T07:38:34.696Z,-6.07
2023-01-13T07:41:02.917Z,-5.73
2023-01-13T07:43:29.858Z,-5.76
2023-01-13T07:45:58.685Z,-6.00
2023-01-13T07:48:26.804Z,-5.93
2023-01-13T07:50:54.418Z,-5.79
2023-01-13T07:53:22.579Z,-5.94
2023-01-13T07:55:49.415Z,-5.65
2023-01-13T07:58:16.359Z,-5.51
2023-01-13T08:00:43.436Z,-5.68
2023-01-13T08:03:10.520Z,-5.61
2023-01-13T08:05:37.374Z,-5.64
2023-01-13T08:08:04.486Z,-5.59
2023-01-13T08:10:31.392Z,-5.40
2023-01-13T08:12:58.401Z,-5.19
2023-01-13T08:15:25.245Z,-5.59
2023-01-13T08:17:52.241Z,-5.68
2023-01-13T08:20:19.188Z,-5.65
2023-01-13T08:22:46.155Z,-5.32
2023-01-13T08:25:13.412Z,-5.35
2023-01-13T08:27:40.383Z,-5.31
2023-01-13T08:30:07.950Z,-5.54
2023-01-13T08:32:35.062Z,-5.28
2023-01-13T08:35:01.905Z,-5.14
2023-01-13T08:37:28.973Z,-5.10
2023-01-13T08:39:55.894Z,-5.37
2023-01-13T08:42:22.836Z,-5.50
2023-01-13T08:44:49.707Z,-5.25
2023-01-13T08:47:16.696Z,-5.27
2023-01-13T08:49:43.769Z,-5.05
2023-01-13T08:52:10.847Z,-5.07
2023-01-13T08:54:39.766Z,-5.31
2023-01-13T08:57:07.335Z,-5.19
2023-01-13T08:59:34.517Z,-5.12
2023-01-13T09:02:01.787Z,-5.17
2023-01-13T09:04:29.233Z,-5.02
2023-01-13T09:06:56.791Z,-4.84
2023-01-13T09:09:23.879Z,-5.08
2023-01-13T09:11:51.578Z,-4.76
2023-01-13T09:14:20.771Z,-4.92
2023-01-13T09:16:47.856Z,-4.72
2023-01-13T09:19:15.207Z,-4.78
2023-01-13T09:21:42.477Z,-5.02
2023-01-13T09:24:09.647Z,-4.64
2023-01-13T09:26:37.983Z,-4.70
2023-01-13T09:29:05.273Z,-4.51
2023-01-13T09:31:32.472Z,-4.46
2023-01-13T09:33:59.614Z,-4.52
2023-01-13T09:36:26.601Z,-4.50
2023-01-13T09:38:53.454Z,-4.44
2023-01-13T09:41:23.911Z,-4.47
2023-01-13T09:43:57.733Z,-4.42
2023-01-13T09:46:33.690Z,-4.31
2023-01-13T09:49:01.707Z,-4.70
2023-01-13T09:51:36.187Z,-4.74
2023-01-13T09:54:11.484Z,-4.97
2023-01-13T09:56:38.525Z,-5.30
2023-01-13T09:59:05.418Z,-4.81
2023-01-13T10:01:58.162Z,-4.80
2023-01-13T10:04:25.852Z,-4.92
2023-01-13T10:06:56.984Z,-5.02
2023-01-13T10:09:51.753Z,-5.02
2023-01-13T10:12:26.095Z,-4.81
2023-01-13T10:14:56.020Z,-4.80
2023-01-13T10:17:37.744Z,-4.96
2023-01-13T10:20:07.439Z,-4.91
2023-01-13T10:23:02.936Z,-4.98
2023-01-13T10:25:55.890Z,-4.86
2023-01-13T10:28:22.806Z,-4.89
2023-01-13T10:30:50.162Z,-4.67
2023-01-13T10:33:21.077Z,-4.72
2023-01-13T10:35:50.758Z,-4.97
2023-01-13T10:38:20.405Z,-5.03
2023-01-13T10:40:49.820Z,-4.70
2023-01-13T10:43:16.771Z,-4.70
2023-01-13T10:46:02.275Z,-4.97
2023-01-13T10:48:53.239Z,-4.91
2023-01-13T10:51:30.572Z,-4.65
2023-01-13T10:54:03.164Z,-4.57
2023-01-13T10:56:34.052Z,-4.42
2023-01-13T10:59:26.520Z,-4.45
2023-01-13T11:02:12.992Z,-4.38
2023-01-13T11:04:53.546Z,-4.34
2023-01-13T11:07:46.286Z,-4.51
2023-01-13T11:10:19.197Z,-4.48
2023-01-13T11:13:12.211Z,-4.48
2023-01-13T11:15:51.951Z,-4.63
2023-01-13T11:18:40.485Z,-4.66
2023-01-13T11:21:26.673Z,-4.74
2023-01-13T11:24:12.157Z,-4.62
2023-01-13T11:27:04.416Z,-4.71
2023-01-13T11:30:00.092Z,-4.74
2023-01-13T11:32:31.287Z,-4.77
2023-01-13T11:35:03.505Z,-4.93
2023-01-13T11:37:40.827Z,-4.77
2023-01-13T11:40:14.565Z,-4.62
2023-01-13T11:43:16.834Z,-4.66
2023-01-13T11:45:52.016Z,-4.89
2023-01-13T11:48:22.483Z,-4.80
2023-01-13T11:50:58.615Z,-4.64
2023-01-13T11:53:37.458Z,-4.73
2023-01-13T11:56:35.598Z,-4.68
2023-01-13T11:59:05.404Z,-4.70
2023-01-13T12:01:58.269Z,-4.78
2023-01-13T12:04:29.773Z,-4.72
2023-01-13T12:07:16.303Z,-4.98
2023-01-13T12:09:53.859Z,-4.89
2023-01-13T12:12:39.044Z,-4.72
2023-01-13T12:15:21.311Z,-4.45
2023-01-13T12:18:03.772Z,-4.65
2023-01-13T12:20:39.973Z,-4.80
2023-01-13T12:23:15.372Z,-4.65
2023-01-13T12:25:49.655Z,-4.68
2023-01-13T12:28:38.198Z,-4.72
2023-01-13T12:31:06.327Z,-4.50
2023-01-13T12:33:51.634Z,-4.54
2023-01-13T12:36:27.543Z,-4.57
2023-01-13T12:39:17.371Z,-4.65
2023-01-13T12:41:58.319Z,-4.81
2023-01-13T12:44:25.229Z,-4.88
2023-01-13T12:46:54.404Z,-5.00
2023-01-13T12:49:27.229Z,-4.98
2023-01-13T12:51:56.789Z,-4.79
2023-01-13T12:54:41.974Z,-4.71
2023-01-13T12:57:15.105Z,-4.99
2023-01-13T12:59:42.430Z,-4.94
2023-01-13T13:02:13.018Z,-4.86
2023-01-13T13:04:44.353Z,-5.02
2023-01-13T13:07:17.083Z,-4.99
2023-01-13T13:09:49.550Z,-5.04
2023-01-13T13:12:31.533Z,-5.01
2023-01-13T13:14:58.508Z,-5.07
2023-01-13T13:17:28.420Z,-4.90
2023-01-13T13:19:57.240Z,-5.19
2023-01-13T13:22:26.856Z,-5.06
2023-01-13T13:24:56.582Z,-5.31
2023-01-13T13:27:39.000Z,-5.19
2023-01-13T13:30:14.861Z,-5.03
2023-01-13T13:32:47.629Z,-4.93
2023-01-13T13:36:02.730Z,-5.00
2023-01-13T13:38:51.366Z,-4.97
2023-01-13T13:41:21.888Z,-4.92
2023-01-13T13:43:49.161Z,-5.01
2023-01-13T13:46:28.551Z,-5.09
2023-01-13T13:48:55.610Z,-5.04
2023-01-13T13:51:33.395Z,-5.08
2023-01-13T13:54:00.798Z,-4.95
2023-01-13T13:56:32.462Z,-4.84
2023-01-13T13:58:59.416Z,-4.88
2023-01-13T14:01:36.713Z,-5.13
2023-01-13T14:04:15.032Z,-5.01
2023-01-13T14:06:55.796Z,-4.98
2023-01-13T14:09:24.583Z,-5.23
2023-01-13T14:11:58.997Z,-4.90
2023-01-13T14:14:26.359Z,-5.08
2023-01-13T14:16:53.474Z,-5.28
2023-01-13T14:19:35.424Z,-5.07
2023-01-13T14:22:04.650Z,-5.11
2023-01-13T14:24:32.288Z,-5.43
2023-01-13T14:27:17.409Z,-4.89
2023-01-13T14:29:45.179Z,-5.54
2023-01-13T14:32:20.057Z,-5.09
2023-01-13T14:34:47.521Z,-5.16
2023-01-13T14:37:36.306Z,-5.00
2023-01-13T14:40:04.017Z,-4.91
2023-01-13T14:42:30.916Z,-4.84
2023-01-13T14:44:58.167Z,-4.73
2023-01-13T14:47:32.839Z,-5.16
2023-01-13T14:50:11.990Z,-5.16
2023-01-13T14:52:51.219Z,-5.13
2023-01-13T14:55:31.377Z,-5.07
2023-01-13T14:58:23.172Z,-5.15
2023-01-13T15:00:51.763Z,-5.18
2023-01-13T15:03:20.749Z,-5.11
2023-01-13T15:05:52.908Z,-5.20
2023-01-13T15:08:27.594Z,-5.21
2023-01-13T15:11:03.011Z,-5.08
2023-01-13T15:13:42.076Z,-5.13
2023-01-13T15:16:24.051Z,-5.10
2023-01-13T15:18:51.690Z,-4.91
2023-01-13T15:21:21.144Z,-4.76
2023-01-13T15:23:48.089Z,-5.05
2023-01-13T15:26:21.894Z,-5.03
2023-01-13T15:28:50.245Z,-5.20
2023-01-13T15:31:17.671Z,-5.30
2023-01-13T15:33:44.701Z,-5.13
2023-01-13T15:36:32.084Z,-5.24
2023-01-13T15:39:00.713Z,-5.07
2023-01-13T15:41:27.872Z,-5.28
2023-01-13T15:43:54.802Z,-5.35
2023-01-13T15:46:22.383Z,-5.39
2023-01-13T15:48:53.076Z,-5.20
2023-01-13T15:51:21.814Z,-4.95
2023-01-13T15:53:48.697Z,-4.93
2023-01-13T15:56:36.330Z,-5.22
2023-01-13T15:59:05.013Z,-5.15
2023-01-13T16:01:31.873Z,-5.26
2023-01-13T16:03:58.900Z,-5.27
2023-01-13T16:06:30.566Z,-5.05
2023-01-13T16:08:57.505Z,-4.96
2023-01-13T16:11:24.381Z,-5.25
2023-01-13T16:13:51.406Z,-5.38
2023-01-13T16:16:24.133Z,-5.34
2023-01-13T16:18:52.402Z,-5.31
2023-01-13T16:21:20.602Z,-5.47
2023-01-13T16:23:49.396Z,-5.44
2023-01-13T16:26:22.520Z,-5.40
2023-01-13T16:28:51.857Z,-5.38
2023-01-13T16:31:24.782Z,-5.40
2023-01-13T16:33:52.330Z,-5.30
2023-01-13T16:36:20.653Z,-5.46
2023-01-13T16:38:49.595Z,-5.34
2023-01-13T16:41:16.866Z,-5.13
2023-01-13T16:43:44.011Z,-5.34
2023-01-13T16:46:22.062Z,-5.30
2023-01-13T16:48:50.427Z,-5.07
2023-01-13T16:51:17.271Z,-5.34
2023-01-13T16:53:44.668Z,-5.32
2023-01-13T16:56:23.028Z,-5.34
2023-01-13T16:58:52.231Z,-5.30
2023-01-13T17:01:28.477Z,-5.36
2023-01-13T17:03:58.531Z,-5.37
2023-01-13T17:06:33.390Z,-5.38
2023-01-13T17:09:04.655Z,-5.33
2023-01-13T17:11:31.749Z,-5.27
2023-01-13T17:13:59.310Z,-5.07
2023-01-13T17:16:26.640Z,-5.06
2023-01-13T17:18:54.028Z,-5.30
2023-01-13T17:21:21.069Z,-5.21
2023-01-13T17:23:47.953Z,-5.18
2023-01-13T17:26:31.606Z,-5.12
2023-01-13T17:29:04.498Z,-5.04
2023-01-13T17:31:32.053Z,-5.05
2023-01-13T17:33:58.998Z,-4.92
2023-01-13T17:36:25.966Z,-5.16
2023-01-13T17:38:53.931Z,-5.24
2023-01-13T17:41:21.259Z,-5.27
2023-01-13T17:43:48.214Z,-5.15
2023-01-13T17:46:16.849Z,-5.05
2023-01-13T17:48:43.698Z,-5.25
2023-01-13T17:51:13.588Z,-5.20
2023-01-13T17:53:40.493Z,-5.40
2023-01-13T17:56:08.977Z,-5.24
2023-01-13T17:58:37.441Z,-5.32
2023-01-13T18:01:22.947Z,-5.50
2023-01-13T18:03:50.189Z,-5.46
2023-01-13T18:06:20.706Z,-5.48
2023-01-13T18:08:48.187Z,-5.25
2023-01-13T18:11:16.587Z,-5.45
2023-01-13T18:13:49.181Z,-5.43
2023-01-13T18:16:18.194Z,-5.12
2023-01-13T18:18:47.102Z,-5.24
2023-01-13T18:21:25.600Z,-5.28
2023-01-13T18:23:53.709Z,-5.38
2023-01-13T18:26:21.040Z,-5.28
2023-01-13T18:28:48.043Z,-5.35
2023-01-13T18:31:14.916Z,-5.15
2023-01-13T18:33:41.881Z,-4.99
2023-01-13T18:36:09.299Z,-5.22
2023-01-13T18:38:36.290Z,-5.15
2023-01-13T18:41:05.169Z,-5.05
2023-01-13T18:43:33.456Z,-5.01
2023-01-13T18:46:00.922Z,-5.06
2023-01-13T18:48:31.790Z,-5.27
2023-01-13T18:50:58.727Z,-5.19
2023-01-13T18:53:25.662Z,-5.17
2023-01-13T18:55:52.635Z,-5.15
2023-01-13T18:58:19.710Z,-5.25
2023-01-13T19:00:46.585Z,-5.23
2023-01-13T19:03:13.408Z,-5.32
2023-01-13T19:05:40.637Z,-5.95
2023-01-13T19:08:07.464Z,-5.75
2023-01-13T19:10:34.349Z,-5.67
2023-01-13T19:13:02.775Z,-5.80
2023-01-13T19:15:29.996Z,-5.85
2023-01-13T19:17:56.978Z,-5.94
2023-01-13T19:20:23.971Z,-5.79
2023-01-13T19:22:51.759Z,-5.56
2023-01-13T19:25:18.598Z,-5.80
2023-01-13T19:27:45.452Z,-5.47
2023-01-13T19:30:13.059Z,-5.69
2023-01-13T19:32:39.904Z,-5.75
2023-01-13T19:35:07.131Z,-5.62
2023-01-13T19:37:34.467Z,-5.56
2023-01-13T19:40:01.313Z,-5.56
2023-01-13T19:42:28.340Z,-5.48
2023-01-13T19:44:55.393Z,-5.60
2023-01-13T19:47:22.252Z,-5.34
2023-01-13T19:49:49.151Z,-5.32
2023-01-13T19:52:16.029Z,-5.55
2023-01-13T19:54:45.343Z,-5.68
2023-01-13T19:57:14.253Z,-5.88
2023-01-13T19:59:42.129Z,-5.58
2023-01-13T20:02:21.006Z,-5.56
2023-01-13T20:04:47.865Z,-5.57
2023-01-13T20:07:15.011Z,-5.69
2023-01-13T20:09:42.275Z,-5.56
2023-01-13T20:12:11.776Z,-5.71
2023-01-13T20:14:38.859Z,-5.71
2023-01-13T20:17:06.003Z,-5.62
2023-01-13T20:19:33.521Z,-5.48
2023-01-13T20:22:00.396Z,-5.55
2023-01-13T20:24:27.383Z,-5.66
2023-01-13T20:26:54.685Z,-5.69
2023-01-13T20:29:22.259Z,-5.75
2023-01-13T20:31:49.888Z,-5.71
2023-01-13T20:34:18.153Z,-5.51
2023-01-13T20:36:46.193Z,-5.73
2023-01-13T20:39:24.337Z,-5.69
2023-01-13T20:41:51.753Z,-5.75
2023-01-13T20:44:18.875Z,-5.69
2023-01-13T20:46:45.827Z,-5.71
2023-01-13T20:49:14.931Z,-5.73
2023-01-13T20:51:43.295Z,-6.00
2023-01-13T20:54:11.024Z,-5.67
2023-01-13T20:56:38.402Z,-5.56
2023-01-13T20:59:05.303Z,-5.57
2023-01-13T21:01:32.680Z,-5.43
2023-01-13T21:04:01.299Z,-5.65
2023-01-13T21:06:30.382Z,-5.60
2023-01-13T21:08:57.989Z,-5.53
2023-01-13T21:11:27.422Z,-6.02
2023-01-13T21:13:54.288Z,-5.73
2023-01-13T21:16:21.700Z,-5.71
2023-01-13T21:18:48.553Z,-5.60
2023-01-13T21:21:15.798Z,-5.44
2023-01-13T21:23:44.545Z,-5.68
2023-01-13T21:26:13.484Z,-5.48
2023-01-13T21:28:40.470Z,-5.41
2023-01-13T21:31:10.430Z,-5.56
2023-01-13T21:33:38.316Z,-5.59
2023-01-13T21:36:11.853Z,-5.51
2023-01-13T21:38:38.879Z,-5.49
2023-01-13T21:41:07.918Z,-5.27
2023-01-13T21:43:36.460Z,-5.31
2023-01-13T21:46:05.388Z,-5.25
2023-01-13T21:48:32.452Z,-5.14
2023-01-13T21:51:02.485Z,-5.35
2023-01-13T21:53:29.507Z,-5.27
2023-01-13T21:55:56.307Z,-5.06
2023-01-13T21:58:23.309Z,-5.16
2023-01-13T22:00:50.259Z,-5.43
2023-01-13T22:03:17.267Z,-5.45
2023-01-13T22:05:44.040Z,-5.21
2023-01-13T22:08:12.773Z,-5.43
2023-01-13T22:10:39.660Z,-5.25
2023-01-13T22:13:06.596Z,-5.31
2023-01-13T22:15:33.432Z,-5.36
2023-01-13T22:18:00.304Z,-5.17
2023-01-13T22:20:27.258Z,-5.27
2023-01-13T22:22:54.231Z,-5.45
2023-01-13T22:25:21.098Z,-5.74
2023-01-13T22:27:48.085Z,-5.70
2023-01-13T22:30:17.827Z,-5.54
2023-01-13T22:32:45.667Z,-5.36
2023-01-13T22:35:14.156Z,-5.48
2023-01-13T22:37:41.813Z,-5.49
2023-01-13T22:40:11.502Z,-5.77
2023-01-13T22:42:42.933Z,-5.72
2023-01-13T22:45:14.069Z,-5.74
2023-01-13T22:47:41.095Z,-5.68
2023-01-13T22:50:10.122Z,-5.75
2023-01-13T22:52:37.070Z,-5.76
2023-01-13T22:55:04.494Z,-5.71
2023-01-13T22:57:36.389Z,-5.57
2023-01-13T23:00:06.486Z,-5.88
2023-01-13T23:02:33.529Z,-5.46
2023-01-13T23:05:00.437Z,-5.49
2023-01-13T23:07:27.308Z,-5.64
2023-01-13T23:09:54.212Z,-5.71
2023-01-13T23:12:21.021Z,-5.48
2023-01-13T23:14:47.962Z,-5.63
2023-01-13T23:17:14.815Z,-5.50
2023-01-13T23:19:41.858Z,-5.63
2023-01-13T23:22:08.924Z,-5.72
2023-01-13T23:24:35.898Z,-5.58
2023-01-13T23:27:02.717Z,-5.60
2023-01-13T23:29:29.602Z,-5.72
2023-01-13T23:31:56.468Z,-5.97
2023-01-13T23:34:23.666Z,-5.88
2023-01-13T23:36:50.477Z,-6.02
2023-01-13T23:39:17.439Z,-5.65
2023-01-13T23:41:44.297Z,-5.82
2023-01-13T23:44:11.194Z,-5.93
2023-01-13T23:46:38.088Z,-5.78
2023-01-13T23:49:05.127Z,-5.53
2023-01-13T23:51:32.303Z,-5.71
2023-01-13T23:53:59.808Z,-5.77
2023-01-13T23:56:30.273Z,-5.71
2023-01-13T23:58:57.383Z,-5.71
